sensor_id;sensor_type;location;lat;lon;timestamp;P1;durP1;ratioP1;P2;durP2;ratioP2
38262;SDS011;24054;50.128;19.730;2024-03-08T09:38:43;9.57;;;7.20;;
38262;SDS011;24054;50.128;19.730;2024-03-08T09:41:12;7.90;;;6.90;;
38262;SDS011;24054;50.128;19.730;2024-03-08T09:51:02;8.00;;;6.53;;
38262;SDS011;24054;50.128;19.730;2024-03-08T09:53:30;6.90;;;6.00;;
38262;SDS011;24054;50.128;19.730;2024-03-08T09:55:57;8.23;;;6.70;;
38262;SDS011;24054;50.128;19.730;2024-03-08T09:58:24;7.93;;;6.57;;
38262;SDS011;24054;50.128;19.730;2024-03-08T10:01:18;6.80;;;6.10;;
38262;SDS011;24054;50.128;19.730;2024-03-08T10:03:47;6.57;;;5.82;;
38262;SDS011;24054;50.128;19.730;2024-03-08T10:06:18;9.23;;;6.43;;
38262;SDS011;24054;50.128;19.730;2024-03-08T10:08:49;6.80;;;5.95;;
38262;SDS011;24054;50.128;19.730;2024-03-08T10:11:17;7.85;;;6.25;;
38262;SDS011;24054;50.128;19.730;2024-03-08T10:13:44;8.18;;;6.53;;
38262;SDS011;24054;50.128;19.730;2024-03-08T10:16:13;6.70;;;5.82;;
38262;SDS011;24054;50.128;19.730;2024-03-08T10:18:42;6.68;;;5.90;;
38262;SDS011;24054;50.128;19.730;2024-03-08T10:21:11;6.63;;;5.88;;
38262;SDS011;24054;50.128;19.730;2024-03-08T10:23:41;6.07;;;5.35;;
38262;SDS011;24054;50.128;19.730;2024-03-08T10:26:10;6.53;;;5.82;;
38262;SDS011;24054;50.128;19.730;2024-03-08T10:28:39;7.35;;;5.88;;
38262;SDS011;24054;50.128;19.730;2024-03-08T10:31:08;6.82;;;5.78;;
38262;SDS011;24054;50.128;19.730;2024-03-08T10:33:35;6.38;;;5.50;;
38262;SDS011;24054;50.128;19.730;2024-03-08T10:38:32;6.13;;;5.47;;
38262;SDS011;24054;50.128;19.730;2024-03-08T10:41:04;7.95;;;5.97;;
38262;SDS011;24054;50.128;19.730;2024-03-08T10:43:34;6.88;;;5.72;;
38262;SDS011;24054;50.128;19.730;2024-03-08T10:46:24;5.97;;;5.38;;
38262;SDS011;24054;50.128;19.730;2024-03-08T10:48:57;6.25;;;5.55;;
38262;SDS011;24054;50.128;19.730;2024-03-08T10:51:28;9.50;;;7.55;;
38262;SDS011;24054;50.128;19.730;2024-03-08T10:53:57;10.60;;;8.82;;
38262;SDS011;24054;50.128;19.730;2024-03-08T10:56:29;10.38;;;9.27;;
38262;SDS011;24054;50.128;19.730;2024-03-08T10:58:58;16.25;;;12.93;;
38262;SDS011;24054;50.128;19.730;2024-03-08T11:01:25;16.92;;;14.25;;
38262;SDS011;24054;50.128;19.730;2024-03-08T11:03:52;17.45;;;14.18;;
38262;SDS011;24054;50.128;19.730;2024-03-08T11:06:29;17.67;;;13.05;;
38262;SDS011;24054;50.128;19.730;2024-03-08T11:08:57;15.00;;;11.88;;
38262;SDS011;24054;50.128;19.730;2024-03-08T11:11:25;17.35;;;10.75;;
38262;SDS011;24054;50.128;19.730;2024-03-08T11:14:01;22.45;;;10.70;;
38262;SDS011;24054;50.128;19.730;2024-03-08T11:16:38;19.05;;;11.00;;
38262;SDS011;24054;50.128;19.730;2024-03-08T11:19:24;13.35;;;9.65;;
38262;SDS011;24054;50.128;19.730;2024-03-08T11:21:57;16.88;;;10.10;;
38262;SDS011;24054;50.128;19.730;2024-03-08T11:24:28;15.88;;;10.20;;
38262;SDS011;24054;50.128;19.730;2024-03-08T11:27:05;16.65;;;10.15;;
38262;SDS011;24054;50.128;19.730;2024-03-08T11:29:37;14.80;;;9.50;;
38262;SDS011;24054;50.128;19.730;2024-03-08T11:32:08;12.70;;;9.23;;
38262;SDS011;24054;50.128;19.730;2024-03-08T11:34:36;15.88;;;9.35;;
38262;SDS011;24054;50.128;19.730;2024-03-08T11:37:04;13.55;;;9.30;;
38262;SDS011;24054;50.128;19.730;2024-03-08T11:39:34;14.63;;;8.95;;
38262;SDS011;24054;50.128;19.730;2024-03-08T11:44:30;13.43;;;8.57;;
38262;SDS011;24054;50.128;19.730;2024-03-08T11:46:59;11.02;;;8.63;;
38262;SDS011;24054;50.128;19.730;2024-03-08T11:49:26;16.02;;;8.48;;
38262;SDS011;24054;50.128;19.730;2024-03-08T11:51:53;9.05;;;7.90;;
38262;SDS011;24054;50.128;19.730;2024-03-08T11:54:21;11.85;;;7.93;;
38262;SDS011;24054;50.128;19.730;2024-03-08T11:56:51;12.63;;;8.47;;
38262;SDS011;24054;50.128;19.730;2024-03-08T11:59:20;12.90;;;8.55;;
38262;SDS011;24054;50.128;19.730;2024-03-08T12:04:31;11.38;;;7.82;;
38262;SDS011;24054;50.128;19.730;2024-03-08T12:07:01;11.25;;;7.78;;
38262;SDS011;24054;50.128;19.730;2024-03-08T12:09:33;11.90;;;7.25;;
38262;SDS011;24054;50.128;19.730;2024-03-08T12:12:02;8.77;;;7.25;;
38262;SDS011;24054;50.128;19.730;2024-03-08T12:14:29;10.30;;;7.73;;
38262;SDS011;24054;50.128;19.730;2024-03-08T12:16:57;12.23;;;7.25;;
38262;SDS011;24054;50.128;19.730;2024-03-08T12:19:27;9.15;;;6.50;;
38262;SDS011;24054;50.128;19.730;2024-03-08T12:21:54;9.07;;;7.22;;
38262;SDS011;24054;50.128;19.730;2024-03-08T12:24:22;10.05;;;6.97;;
38262;SDS011;24054;50.128;19.730;2024-03-08T12:26:49;9.38;;;7.55;;
38262;SDS011;24054;50.128;19.730;2024-03-08T12:29:20;8.18;;;6.57;;
38262;SDS011;24054;50.128;19.730;2024-03-08T12:31:50;8.93;;;6.72;;
38262;SDS011;24054;50.128;19.730;2024-03-08T12:34:18;8.20;;;6.95;;
38262;SDS011;24054;50.128;19.730;2024-03-08T12:36:47;9.82;;;7.22;;
